Flight Track Log - Related Links

Times and Time Zones

All times are in EDT time to prevent confusion due to time zone crossing. See the AAY854 flight status page for this flight to view local times or setup timezone preferences in your user account.


Time Position Orientation Groundspeed Altitude Reporting Facility
EDT Latitude Longitude Course Direction KTS MPH feet Rate Location/Type
Mon 03:07:07 PM 27.9833 -82.6667 349° North 213 245 2,800  Level Tampa TRACON
Mon 03:09:00 PM 28.6842 -82.8618 349° North  Level Estimated
Mon 03:09:07 PM 28.1333 -82.6667 360° North 270 311 6,000  Level Tampa TRACON
Mon 03:10:00 PM 28.7948 -82.8869 349° North  Level Estimated
Mon 03:11:00 PM 28.2623 -82.7370 334° Northwest  Level FlightAware Approximate
Mon 03:11:00 PM 28.9283 -82.9173 349° North  Level Estimated
Mon 03:11:51 PM 28.3500 -82.6992 334° Northwest 287 330 11,000  Level Jacksonville Center
Mon 03:12:00 PM 29.0618 -82.9478 349° North  Level Estimated
Mon 03:12:51 PM 28.4503 -82.7225 348° North 328 377 12,500  Level Jacksonville Center
Mon 03:13:51 PM 28.5589 -82.7461 349° North 367 422 14,800 2,033 Climbing Jacksonville Center
Mon 03:15:00 PM 28.6883 -82.8156 335° Northwest  Level FlightAware Approximate
Mon 03:15:51 PM 28.7758 -82.7789 335° Northwest 398 458 18,600  Level Jacksonville Center
Mon 03:16:51 PM 28.8928 -82.7978 352° North 412 474 20,600 1,700 Climbing Jacksonville Center
Mon 03:17:51 PM 29.0097 -82.8214 350° North 424 488 22,000 1,400 Climbing Jacksonville Center
Mon 03:18:51 PM 29.1225 -82.8736 338° Northwest 430 495 23,400 1,750 Climbing Jacksonville Center
Mon 03:19:51 PM 29.2372 -82.9258 338° Northwest 443 510 25,500 1,767 Climbing Jacksonville Center
Mon 03:21:51 PM 29.4586 -83.0236 339° North 427 491 28,700 1,467 Climbing Jacksonville Center
Mon 03:22:51 PM 29.5692 -83.0717 339° North 427 491 29,900 600 Climbing Jacksonville Center
Mon 03:23:51 PM 29.6733 -83.1197 338° Northwest 416 479 29,900  Level Jacksonville Center
Mon 03:24:51 PM 29.7839 -83.1678 339° North 409 471 29,900 167 Level Jacksonville Center
Mon 03:26:51 PM 29.9986 -83.2619 339° North 417 480 30,400 533 Climbing Jacksonville Center
Mon 03:27:51 PM 30.1050 -83.3128 338° Northwest 412 474 31,500 300 Climbing Jacksonville Center
Mon 03:30:00 PM 30.3249 -83.4141 338° Northwest  Level FlightAware Approximate
Mon 03:31:51 PM 30.5322 -83.5050 339° North 407 468 31,900  Level Jacksonville Center
Mon 03:33:00 PM 30.6566 -83.5323 349° North  Level Estimated
Mon 03:33:51 PM 30.7303 -83.5958 349° North 397 457 32,000  Level Jacksonville Center
Mon 03:34:51 PM 30.8364 -83.6403 340° North 397 457 32,000  Level Jacksonville Center
Mon 03:35:51 PM 30.9406 -83.6919 337° Northwest 397 457 32,000 486 Level Jacksonville Center
Mon 03:37:00 PM 31.0442 -83.7361 339° North  Level FlightAware Approximate
Mon 03:38:58 PM 31.2769 -83.8494 338° Northwest 407 468 34,000  Level Atlanta Center
Mon 03:39:58 PM 31.3856 -83.8953 340° North 412 474 34,000  Level Atlanta Center
Mon 03:41:58 PM 31.6108 -83.9778 343° North 417 480 34,000  Level Atlanta Center
Mon 03:42:58 PM 31.7133 -84.0047 347° North 417 480 34,000  Level Atlanta Center
Mon 03:44:58 PM 31.9428 -84.0558 349° North 417 480 34,000  Level Atlanta Center
Mon 03:45:58 PM 32.0639 -84.0781 351° North 422 486 34,000  Level Atlanta Center
Mon 03:46:58 PM 32.1808 -84.1075 348° North 422 486 34,000  Level Atlanta Center
Mon 03:48:00 PM 32.2928 -84.1325 349° North  Level FlightAware Approximate
Mon 03:49:58 PM 32.5356 -84.1842 349° North 432 497 34,000  Level Atlanta Center
Mon 03:50:58 PM 32.6544 -84.2164 347° North 432 497 34,000  Level Atlanta Center
Mon 03:51:58 PM 32.7733 -84.2414 350° North 432 497 34,000  Level Atlanta Center
Mon 03:52:58 PM 32.8944 -84.2714 348° North 432 497 34,000  Level Atlanta Center
Mon 03:53:58 PM 33.0156 -84.2939 351° North 437 503 34,000  Level Atlanta Center
Mon 03:54:58 PM 33.1344 -84.3242 348° North 432 497 34,000  Level Atlanta Center
Mon 03:55:00 PM 33.0510 -84.3037 349° North  Level FlightAware Approximate
Mon 03:56:58 PM 33.3847 -84.3822 349° North 432 497 34,000  Level Atlanta Center
Mon 03:57:58 PM 33.5056 -84.4075 350° North 439 505 34,000  Level Atlanta Center
Mon 03:58:58 PM 33.6203 -84.4381 347° North 428 493 34,000  Level Atlanta Center
Mon 03:59:58 PM 33.7414 -84.4661 349° North 428 493 34,000  Level Atlanta Center
Mon 04:01:00 PM 33.8528 -84.4865 351° North  Level FlightAware Approximate
Mon 04:01:58 PM 33.9833 -84.5247 351° North 433 498 34,000  Level Atlanta Center
Mon 04:02:58 PM 34.0958 -84.5531 348° North 444 511 34,000  Level Atlanta Center
Mon 04:03:58 PM 34.2231 -84.5814 350° North 456 525 34,000  Level Atlanta Center
Mon 04:04:58 PM 34.3586 -84.6125 349° North 456 525 34,000  Level Atlanta Center
Mon 04:05:58 PM 34.4836 -84.6436 348° North 451 519 34,000  Level Atlanta Center
Mon 04:06:58 PM 34.6067 -84.6722 349° North 446 513 34,000  Level Atlanta Center
Mon 04:09:00 PM 34.8262 -84.7267 348° North  Level FlightAware Approximate
Mon 04:09:58 PM 34.9589 -84.7636 348° North 446 513 34,000  Level Atlanta Center
Mon 04:10:58 PM 35.0817 -84.7950 348° North 446 513 34,000  Level Atlanta Center
Mon 04:11:58 PM 35.2067 -84.8267 348° North 446 513 34,000  Level Atlanta Center
Mon 04:12:58 PM 35.3275 -84.8558 349° North 446 513 34,000  Level Atlanta Center
Mon 04:13:58 PM 35.4525 -84.8878 348° North 451 519 34,000  Level Atlanta Center
Mon 04:14:58 PM 35.5775 -84.9172 349° North 451 519 34,000  Level Atlanta Center
Mon 04:15:58 PM 35.7025 -84.9517 347° North 451 519 34,000  Level Atlanta Center
Mon 04:16:58 PM 35.8272 -84.9786 350° North 451 519 34,000  Level Atlanta Center
Mon 04:19:19 PM 36.1328 -85.0558 348° North 456 525 34,000  Level Indianapolis Center
Mon 04:20:21 PM 36.2556 -85.0919 347° North 453 521 34,000  Level Indianapolis Center
Mon 04:21:23 PM 36.3797 -85.1194 350° North 451 519 34,000  Level Indianapolis Center
Mon 04:22:25 PM 36.5006 -85.1569 346° North 449 517 34,000  Level Indianapolis Center
Mon 04:23:27 PM 36.6253 -85.1833 350° North 451 519 34,000  Level Indianapolis Center
Mon 04:25:00 PM 36.7919 -85.2234 349° North  Level FlightAware Approximate
Mon 04:26:33 PM 37.0272 -85.2775 349° North 461 531 34,000  Level Indianapolis Center
Mon 04:28:00 PM 37.1825 -85.3189 348° North  Level FlightAware Approximate
Mon 04:28:37 PM 37.2808 -85.3283 348° North 460 529 34,000  Level Indianapolis Center
Mon 04:30:00 PM 37.4266 -85.3799 344° North  Level FlightAware Approximate
Mon 04:31:43 PM 37.6717 -85.4108 346° North 444 511 34,000  Level Indianapolis Center
Mon 04:33:00 PM 37.8102 -85.4402 350° North  Level Estimated
Mon 04:33:47 PM 37.9081 -85.4581 350° North 457 526 34,000  Level Indianapolis Center
Mon 04:34:49 PM 38.0547 -85.4953 349° North 449 517 34,000  Level Indianapolis Center
Mon 04:35:51 PM 38.1747 -85.5167 352° North 437 503 34,000  Level Indianapolis Center
Mon 04:36:53 PM 38.2953 -85.5467 349° North 439 505 34,000  Level Indianapolis Center
Mon 04:37:00 PM 38.1750 -85.5906 346° North  Level FlightAware Approximate
Mon 04:37:55 PM 38.4164 -85.5711 351° North 440 506 34,000  Level Indianapolis Center
Mon 04:39:59 PM 38.6656 -85.6244 351° North 445 512 34,000 -411 Level Indianapolis Center
Mon 04:41:00 PM 38.7751 -85.6491 350° North  Level FlightAware Approximate
Mon 04:42:03 PM 38.9094 -85.6786 350° North 446 513 32,300  Level Indianapolis Center
Mon 04:43:05 PM 39.0553 -85.7089 351° North 445 512 31,300 -1,032 Descending Indianapolis Center
Mon 04:45:09 PM 39.2969 -85.7614 350° North 443 510 29,100 -1,065 Descending Indianapolis Center
Mon 04:46:11 PM 39.4172 -85.7908 349° North 443 510 28,000 -710 Descending Indianapolis Center
Mon 04:48:15 PM 39.6756 -85.8492 350° North 432 497 26,900 -871 Descending Indianapolis Center
Mon 04:49:17 PM 39.7908 -85.8714 352° North 426 490 25,300 -1,694 Descending Indianapolis Center
Mon 04:50:19 PM 39.9058 -85.8994 349° North 427 491 23,400 -1,597 Descending Indianapolis Center
Mon 04:51:21 PM 40.0217 -85.9231 351° North 426 490 22,000 -750 Descending Indianapolis Center
Mon 04:52:11 PM 40.1339 -85.9514 349° North 420 483 22,000  Level Chicago Center
Mon 04:53:13 PM 40.2481 -85.9747 351° North 420 483 22,000 -290 Level Chicago Center
Mon 04:54:15 PM 40.3619 -86.0028 349° North 419 482 21,400 -726 Descending Chicago Center
Mon 04:55:17 PM 40.4733 -86.0258 351° North 412 474 20,500 -919 Descending Chicago Center
Mon 04:56:19 PM 40.5833 -86.0531 349° North 406 467 19,500 -1,065 Descending Chicago Center
Mon 04:57:21 PM 40.7000 -86.0800 350° North 396 456 18,300 -1,249 Descending Chicago Center
Mon 04:59:36 PM 40.9425 -86.1378 350° North 381 438 15,400 -1,348 Descending Indianapolis Center
Mon 05:00:28 PM 41.0347 -86.1592 350° North 374 430 14,100 -1,295 Descending Chicago Center
Mon 05:02:32 PM 41.2269 -86.2428 342° North 359 413 11,600 -1,379 Descending Chicago Center
Mon 05:04:36 PM 41.3833 -86.3125 342° North 291 335 8,400 -1,645 Descending Chicago Center
Mon 05:05:38 PM 41.4564 -86.3461 341° North 280 322 6,500 -1,548 Descending Chicago Center
Mon 05:07:00 PM 41.6052 -86.3291 352° North  Level Estimated
Mon 05:07:42 PM 41.5981 -86.4031 352° North 238 274 3,600  Level Chicago Center
Mon 05:08:44 PM 41.6528 -86.4153 351° North 212 244 2,600 -770 Descending Chicago Center
Mon 05:10:00 PM 41.7000 -86.3167 323° Northwest  Level FlightAware Approximate
Mon 05:10:49 PM 41.7067 -86.3458 323° Northwest 159 183 1,200  Level Chicago Center
Mon 05:12:00 PM 41.7000 -86.3167 323° Northwest  Level FlightAware Approximate

Login

Don't have an account? Register now (free) for customized features, flight alerts, and more!